Benjamas Naree — 9V9405 — position and weather

sailwx.info

Track history (hours):
 
Tides and Currents Weather Stations Pressure Air Temp Water Temp Dewpoint Dewpoint Depression Visibility Wind Speed Wind Dir Waves Ship Positions

Benjamas Naree

Last reported at 2015-Mar-27 16:14 UTC. Time now 2015-Apr-02 01:22 UTC.
Position N 29°53' W 089°58'.

Length 181 m; draft 6.7 m.

Type: Cargo ship. MMSI: 566377000.

Date/timePositionNaut miles runAvg speedWind from/ knotsBaromVisibWave heightAir tempDewpointWater temp
2015-Mar-27 16:14N 29°53' W 089°58'6 5.8
2015-Mar-27 15:08N 29°57' W 090°04'5 7.3
2015-Mar-27 14:31N 29°57' W 090°09'11 0.6
2015-Mar-26 19:28N 29°56' W 090°21'0 0.0
2015-Mar-26 18:28N 29°56' W 090°21'0 0.0
2015-Mar-26 17:16N 29°56' W 090°21'0 0.0
2015-Mar-26 03:04N 29°56' W 090°21'12 0.2
2015-Mar-23 23:21N 29°55' W 090°08'7 0.4
2015-Mar-23 07:24N 29°56' W 090°00'0 0.0
2015-Mar-23 04:21N 29°56' W 090°00'0 0.0
2015-Mar-22 23:27N 29°56' W 090°00'0 0.0
2015-Mar-22 21:21N 29°56' W 090°00'0 0.0
2015-Mar-22 20:09N 29°56' W 090°00'0 0.0
2015-Mar-22 17:27N 29°56' W 090°00'0 0.0
2015-Mar-22 14:24N 29°56' W 090°00'0 0.0
2015-Mar-22 12:21N 29°56' W 090°00'0 0.0
2015-Mar-22 11:18N 29°56' W 090°00'0 0.0
2015-Mar-22 10:12N 29°56' W 090°00'0 0.0
2015-Mar-22 09:18N 29°56' W 090°00'0 0.0
2015-Mar-21 09:15N 29°56' W 090°00'0 0.0
2015-Mar-21 04:06N 29°56' W 090°00'0 0.0
2015-Mar-21 03:18N 29°56' W 090°00'0 0.0
2015-Mar-21 02:27N 29°56' W 090°00'0 0.0
2015-Mar-20 22:18N 29°56' W 090°00'0 0.0
2015-Mar-20 21:06N 29°56' W 090°00'0 0.0
2015-Mar-20 20:09N 29°56' W 090°00'0 0.0
2015-Mar-20 18:27N 29°56' W 090°00'0 0.0
2015-Mar-20 17:09N 29°56' W 090°00'0 0.0
2015-Mar-20 16:12N 29°56' W 090°00'0 0.0
2015-Mar-20 02:12N 29°56' W 090°00'0 0.0
2015-Mar-19 19:09N 29°56' W 090°00'0 0.0
2015-Mar-19 14:27N 29°56' W 090°00'0 0.0
2015-Mar-19 10:27N 29°56' W 090°00'0 0.0
2015-Mar-19 09:06N 29°56' W 090°00'0 0.0
2015-Mar-19 04:27N 29°56' W 090°00'0 0.0
2015-Mar-18 09:06N 29°56' W 090°00'0 0.0
2015-Mar-18 03:12N 29°56' W 090°00'0 0.0
2015-Mar-17 21:33N 29°56' W 090°00'0 0.0
2015-Mar-17 20:21N 29°56' W 090°00'0 0.0
2015-Mar-17 16:33N 29°56' W 090°00'  
Track history (hours):
 
Tides and Currents Weather Stations Pressure Air Temp Water Temp Dewpoint Dewpoint Depression Visibility Wind Speed Wind Dir Waves Ship Positions

Benjamas Naree

Last reported at 2015-Mar-27 16:14 UTC. Time now 2015-Apr-02 01:22 UTC.
Position N 29°53' W 089°58'.

Length 181 m; draft 6.7 m.

Type: Cargo ship. MMSI: 566377000.

Date/timePositionNaut miles runAvg speedWind from/ knotsBaromVisibWave heightAir tempDewpointWater temp
2015-Mar-27 16:14N 29°53' W 089°58'6 5.8
2015-Mar-27 15:08N 29°57' W 090°04'5 7.3
2015-Mar-27 14:31N 29°57' W 090°09'11 0.6
2015-Mar-26 19:28N 29°56' W 090°21'0 0.0
2015-Mar-26 18:28N 29°56' W 090°21'0 0.0
2015-Mar-26 17:16N 29°56' W 090°21'0 0.0
2015-Mar-26 03:04N 29°56' W 090°21'12 0.2
2015-Mar-23 23:21N 29°55' W 090°08'7 0.4
2015-Mar-23 07:24N 29°56' W 090°00'0 0.0
2015-Mar-23 04:21N 29°56' W 090°00'0 0.0
2015-Mar-22 23:27N 29°56' W 090°00'0 0.0
2015-Mar-22 21:21N 29°56' W 090°00'0 0.0
2015-Mar-22 20:09N 29°56' W 090°00'0 0.0
2015-Mar-22 17:27N 29°56' W 090°00'0 0.0
2015-Mar-22 14:24N 29°56' W 090°00'0 0.0
2015-Mar-22 12:21N 29°56' W 090°00'0 0.0
2015-Mar-22 11:18N 29°56' W 090°00'0 0.0
2015-Mar-22 10:12N 29°56' W 090°00'0 0.0
2015-Mar-22 09:18N 29°56' W 090°00'0 0.0
2015-Mar-21 09:15N 29°56' W 090°00'0 0.0
2015-Mar-21 04:06N 29°56' W 090°00'0 0.0
2015-Mar-21 03:18N 29°56' W 090°00'0 0.0
2015-Mar-21 02:27N 29°56' W 090°00'0 0.0
2015-Mar-20 22:18N 29°56' W 090°00'0 0.0
2015-Mar-20 21:06N 29°56' W 090°00'0 0.0
2015-Mar-20 20:09N 29°56' W 090°00'0 0.0
2015-Mar-20 18:27N 29°56' W 090°00'0 0.0
2015-Mar-20 17:09N 29°56' W 090°00'0 0.0
2015-Mar-20 16:12N 29°56' W 090°00'0 0.0
2015-Mar-20 02:12N 29°56' W 090°00'0 0.0
2015-Mar-19 19:09N 29°56' W 090°00'0 0.0
2015-Mar-19 14:27N 29°56' W 090°00'0 0.0
2015-Mar-19 10:27N 29°56' W 090°00'0 0.0
2015-Mar-19 09:06N 29°56' W 090°00'0 0.0
2015-Mar-19 04:27N 29°56' W 090°00'0 0.0
2015-Mar-18 09:06N 29°56' W 090°00'0 0.0
2015-Mar-18 03:12N 29°56' W 090°00'0 0.0
2015-Mar-17 21:33N 29°56' W 090°00'0 0.0
2015-Mar-17 20:21N 29°56' W 090°00'0 0.0
2015-Mar-17 16:33N 29°56' W 090°00'  

Dump ship's entire track history